Time;durP1;ratioP1;P1;durP2;ratioP2;P2;SDS_P1;SDS_P2;PMS_P1;PMS_P2;Temp;Humidity;BMP_temperature;BMP_pressure;BME280_temperature;BME280_humidity;BME280_pressure;Samples;Min_cycle;Max_cycle;Signal;HPM_P1;HPM_P2
2021/03/26 00:00:15;;;;;;;5.80;5.20;;;12.40;99.90;;;;;;5079382;28;20206;-82
2021/03/26 00:02:41;;;;;;;6.28;5.28;;;12.30;99.90;;;;;;5078436;28;20217;-84
2021/03/26 00:05:10;;;;;;;6.53;5.60;;;12.30;99.90;;;;;;5079030;28;20696;-82
2021/03/26 00:07:36;;;;;;;7.82;6.38;;;12.30;99.90;;;;;;5077213;28;20213;-82
2021/03/26 00:10:06;;;;;;;5.90;5.03;;;12.30;99.90;;;;;;5077514;28;20420;-83
2021/03/26 00:12:33;;;;;;;6.60;5.80;;;12.30;99.90;;;;;;5077573;28;20217;-81
2021/03/26 00:14:59;;;;;;;7.07;5.90;;;12.30;99.90;;;;;;5090185;28;20194;-83
2021/03/26 00:17:26;;;;;;;5.40;4.90;;;12.20;99.90;;;;;;5084298;28;20221;-82
2021/03/26 00:19:52;;;;;;;6.30;5.70;;;12.20;99.90;;;;;;5087285;28;20198;-83
2021/03/26 00:22:18;;;;;;;7.57;5.65;;;12.20;99.90;;;;;;5086491;28;20282;-81
2021/03/26 00:24:44;;;;;;;6.82;5.72;;;12.20;99.90;;;;;;5089257;28;20236;-82
2021/03/26 00:27:11;;;;;;;6.10;5.50;;;12.20;99.90;;;;;;5072485;28;20210;-82
2021/03/26 00:29:38;;;;;;;6.68;5.88;;;12.20;99.90;;;;;;5070607;28;20205;-82
2021/03/26 00:32:05;;;;;;;6.35;5.72;;;12.20;99.90;;;;;;5078279;28;20201;-81
2021/03/26 00:34:31;;;;;;;7.80;5.57;;;12.10;99.90;;;;;;5070861;28;20202;-83
2021/03/26 00:36:57;;;;;;;6.95;5.47;;;12.10;99.90;;;;;;5071785;28;20221;-84
2021/03/26 00:39:24;;;;;;;6.85;5.57;;;12.10;99.90;;;;;;5073525;28;20231;-83
2021/03/26 00:41:50;;;;;;;8.32;6.45;;;12.10;99.90;;;;;;5076592;28;20217;-83
2021/03/26 00:44:17;;;;;;;6.97;6.28;;;12.10;99.90;;;;;;5081665;28;20237;-82
2021/03/26 00:46:44;;;;;;;6.43;5.78;;;12.10;99.90;;;;;;5068600;28;20305;-84
2021/03/26 00:49:11;;;;;;;7.57;6.80;;;12.10;99.90;;;;;;5070076;28;20218;-83
2021/03/26 00:51:38;;;;;;;6.90;6.22;;;12.10;99.90;;;;;;5079370;28;20274;-83
2021/03/26 00:54:05;;;;;;;6.93;6.00;;;12.00;99.90;;;;;;5076854;28;20221;-83
2021/03/26 00:56:32;;;;;;;7.78;6.53;;;12.00;99.90;;;;;;5075357;28;20285;-83
2021/03/26 00:58:58;;;;;;;6.80;5.90;;;12.00;99.90;;;;;;5074403;28;20290;-83
2021/03/26 01:01:25;;;;;;;8.55;6.80;;;12.00;99.90;;;;;;5081902;28;20213;-82
2021/03/26 01:03:52;;;;;;;7.63;5.85;;;12.00;99.90;;;;;;5076395;28;20213;-81
2021/03/26 01:06:20;;;;;;;7.47;6.15;;;11.90;99.90;;;;;;5076207;28;20208;-81
2021/03/26 01:08:46;;;;;;;8.32;7.45;;;11.90;99.90;;;;;;5073212;28;20198;-81
2021/03/26 01:11:20;;;;;;;8.63;6.93;;;11.90;99.90;;;;;;5070239;28;20226;-81
2021/03/26 01:13:47;;;;;;;7.47;6.82;;;11.90;99.90;;;;;;5070739;28;20202;-81
2021/03/26 01:16:15;;;;;;;7.53;6.38;;;11.90;99.90;;;;;;5083505;28;20275;-80
2021/03/26 01:18:43;;;;;;;7.30;6.60;;;11.90;99.90;;;;;;5083838;28;20205;-82
2021/03/26 01:21:13;;;;;;;8.02;7.15;;;11.90;99.90;;;;;;5077141;28;20190;-82
2021/03/26 01:23:40;;;;;;;6.68;5.85;;;11.80;99.90;;;;;;5069966;28;20233;-81
2021/03/26 01:26:06;;;;;;;12.52;7.85;;;11.80;99.90;;;;;;5083470;28;20210;-82
2021/03/26 01:28:33;;;;;;;7.78;6.45;;;11.80;99.90;;;;;;5070915;28;20208;-82
2021/03/26 01:31:00;;;;;;;8.20;6.93;;;11.80;99.90;;;;;;5082602;28;20612;-82
2021/03/26 01:33:27;;;;;;;8.77;6.63;;;11.80;99.90;;;;;;5073676;28;20194;-82
2021/03/26 01:35:55;;;;;;;7.90;7.10;;;11.80;99.90;;;;;;5072747;28;20579;-82
2021/03/26 01:38:23;;;;;;;9.02;7.30;;;11.80;99.90;;;;;;5077842;28;20587;-82
2021/03/26 01:40:52;;;;;;;7.10;6.40;;;11.80;99.90;;;;;;5074671;28;20206;-82
2021/03/26 01:43:22;;;;;;;9.70;6.65;;;11.70;99.90;;;;;;5086753;28;20232;-81
2021/03/26 01:45:50;;;;;;;7.72;7.03;;;11.70;99.90;;;;;;5084160;28;20781;-82
2021/03/26 01:48:23;;;;;;;7.90;7.10;;;11.70;99.90;;;;;;5077680;28;20212;-83
2021/03/26 01:50:49;;;;;;;8.45;7.18;;;11.70;99.90;;;;;;5086520;28;20210;-83
2021/03/26 01:53:15;;;;;;;8.15;7.38;;;11.70;99.90;;;;;;5070859;28;20214;-82
2021/03/26 01:55:45;;;;;;;8.10;7.28;;;11.70;99.90;;;;;;5085860;28;20224;-83
2021/03/26 01:58:13;;;;;;;13.63;7.20;;;11.70;99.90;;;;;;5083846;28;20229;-84
2021/03/26 02:00:42;;;;;;;11.70;6.72;;;11.70;99.90;;;;;;5077704;28;20213;-83
2021/03/26 02:03:12;;;;;;;7.80;6.90;;;11.60;99.90;;;;;;5083447;28;20234;-82
2021/03/26 02:05:39;;;;;;;8.30;7.43;;;11.60;99.90;;;;;;5081386;28;20245;-84
2021/03/26 02:08:05;;;;;;;11.80;6.25;;;11.60;99.90;;;;;;5077690;28;20205;-84
2021/03/26 02:10:32;;;;;;;8.98;7.15;;;11.60;99.90;;;;;;5079904;28;20585;-84
2021/03/26 02:13:03;;;;;;;7.68;6.78;;;11.60;99.90;;;;;;5078170;28;20206;-83
2021/03/26 02:15:36;;;;;;;9.35;8.10;;;11.60;99.90;;;;;;5077894;28;20214;-85
2021/03/26 02:18:03;;;;;;;10.55;6.95;;;11.60;99.90;;;;;;5076667;28;20190;-83
2021/03/26 02:20:42;;;;;;;9.88;7.97;;;11.50;99.90;;;;;;5081620;28;20187;-84
2021/03/26 02:23:11;;;;;;;8.05;7.20;;;11.50;99.90;;;;;;5073311;28;20226;-85
2021/03/26 02:25:38;;;;;;;7.75;6.95;;;11.50;99.90;;;;;;5082946;28;20299;-84
2021/03/26 02:28:05;;;;;;;7.22;6.53;;;11.50;99.90;;;;;;5084540;28;20210;-82
2021/03/26 02:30:36;;;;;;;7.60;6.82;;;11.50;99.90;;;;;;5072386;28;20275;-83
2021/03/26 02:33:03;;;;;;;8.15;7.35;;;11.50;99.90;;;;;;5075415;28;20205;-83
2021/03/26 02:35:32;;;;;;;8.30;7.45;;;11.50;99.90;;;;;;5086424;28;20198;-83
2021/03/26 02:38:02;;;;;;;10.30;7.50;;;11.40;99.90;;;;;;5090483;28;20537;-82
2021/03/26 02:40:34;;;;;;;11.65;8.65;;;11.40;99.90;;;;;;5083575;28;20210;-82
2021/03/26 02:43:14;;;;;;;10.48;8.02;;;11.40;99.90;;;;;;5073849;28;20218;-82
2021/03/26 02:45:47;;;;;;;9.35;7.18;;;11.40;99.90;;;;;;5085606;28;20271;-84
2021/03/26 02:48:20;;;;;;;10.18;7.60;;;11.40;99.90;;;;;;5088777;28;20198;-84
2021/03/26 02:50:58;;;;;;;9.77;7.78;;;11.40;99.90;;;;;;5084300;28;20216;-83
2021/03/26 02:53:32;;;;;;;8.32;7.40;;;11.30;99.90;;;;;;5073914;28;20183;-84
2021/03/26 02:56:05;;;;;;;9.77;8.68;;;11.30;99.90;;;;;;5085086;28;20214;-85
2021/03/26 02:58:35;;;;;;;10.18;7.95;;;11.30;99.90;;;;;;5073142;28;20214;-84
2021/03/26 03:01:08;;;;;;;8.65;7.85;;;11.30;99.90;;;;;;5083803;28;20233;-84
2021/03/26 03:03:37;;;;;;;11.63;9.23;;;11.30;99.90;;;;;;5081355;28;20229;-85
2021/03/26 03:06:08;;;;;;;8.75;7.85;;;11.30;99.90;;;;;;5075900;28;20185;-85
2021/03/26 03:08:37;;;;;;;9.60;8.55;;;11.30;99.90;;;;;;5072630;28;20237;-86
2021/03/26 03:11:10;;;;;;;9.55;7.53;;;11.30;99.90;;;;;;5073632;28;20837;-85
2021/03/26 03:13:41;;;;;;;10.30;8.57;;;11.20;99.90;;;;;;5074020;28;20229;-85
2021/03/26 03:16:14;;;;;;;13.07;8.48;;;11.20;99.90;;;;;;5074554;28;20189;-84
2021/03/26 03:18:51;;;;;;;10.05;7.75;;;11.20;99.90;;;;;;5085981;28;20247;-85
2021/03/26 03:21:28;;;;;;;10.30;8.60;;;11.20;99.90;;;;;;5081358;28;20209;-84
2021/03/26 03:24:01;;;;;;;12.70;8.93;;;11.20;99.90;;;;;;5079900;28;20212;-84
2021/03/26 03:26:36;;;;;;;10.10;7.68;;;11.10;99.90;;;;;;5073650;28;20187;-84
2021/03/26 03:29:10;;;;;;;9.73;7.88;;;11.10;99.90;;;;;;5088347;28;20737;-83
2021/03/26 03:31:45;;;;;;;10.25;9.20;;;11.10;99.90;;;;;;5081872;28;20213;-83
2021/03/26 03:34:19;;;;;;;9.82;8.82;;;11.10;99.90;;;;;;5080450;28;20198;-84
2021/03/26 03:36:52;;;;;;;10.15;8.63;;;11.10;99.90;;;;;;5072491;28;20190;-84
2021/03/26 03:39:25;;;;;;;11.32;9.25;;;11.10;99.90;;;;;;5084512;28;20304;-83
2021/03/26 03:41:59;;;;;;;13.98;9.18;;;11.00;99.90;;;;;;5088141;28;20209;-84
2021/03/26 03:44:36;;;;;;;9.68;8.13;;;11.00;99.90;;;;;;5088619;28;20715;-82
2021/03/26 03:47:10;;;;;;;10.57;8.50;;;11.00;99.90;;;;;;5089907;28;20231;-83
2021/03/26 03:49:41;;;;;;;13.88;10.00;;;11.00;99.90;;;;;;5085447;28;20273;-84
2021/03/26 03:52:14;;;;;;;10.93;7.82;;;11.00;99.90;;;;;;5089103;28;20190;-84
2021/03/26 03:54:45;;;;;;;11.95;8.40;;;11.00;99.90;;;;;;5093077;28;20213;-84
2021/03/26 03:57:16;;;;;;;10.70;9.13;;;11.00;99.90;;;;;;5079708;28;20279;-84
2021/03/26 03:59:49;;;;;;;9.88;8.52;;;11.00;99.90;;;;;;5077107;28;20724;-84
2021/03/26 04:02:21;;;;;;;9.30;8.40;;;11.00;99.90;;;;;;5079020;28;20218;-85
2021/03/26 04:04:53;;;;;;;10.60;7.93;;;11.00;99.90;;;;;;5082029;28;20557;-82
2021/03/26 04:07:22;;;;;;;8.90;8.00;;;10.90;99.90;;;;;;5082228;28;20214;-84
2021/03/26 04:09:50;;;;;;;9.68;8.63;;;10.90;99.90;;;;;;5072663;28;20225;-84
2021/03/26 04:12:21;;;;;;;10.80;8.65;;;10.90;99.90;;;;;;5073976;28;20581;-86
2021/03/26 04:14:55;;;;;;;11.65;10.00;;;10.90;99.90;;;;;;5087375;28;20197;-85
2021/03/26 04:17:26;;;;;;;11.70;7.97;;;10.90;99.90;;;;;;5074450;28;20192;-84
2021/03/26 04:19:57;;;;;;;10.07;7.75;;;10.90;99.90;;;;;;5081993;28;20210;-85
2021/03/26 04:22:27;;;;;;;9.25;8.25;;;10.90;99.90;;;;;;5090026;28;20251;-85
2021/03/26 04:24:58;;;;;;;9.82;8.77;;;10.90;99.90;;;;;;5071857;28;20693;-83
2021/03/26 04:27:30;;;;;;;10.20;8.25;;;10.80;99.90;;;;;;5070430;28;20217;-83
2021/03/26 04:30:00;;;;;;;11.68;8.27;;;10.80;99.90;;;;;;5070657;28;20902;-83
2021/03/26 04:32:27;;;;;;;9.63;8.63;;;10.80;99.90;;;;;;5071395;28;20790;-83
2021/03/26 04:34:55;;;;;;;11.48;9.23;;;10.80;99.90;;;;;;5075673;28;20239;-83
2021/03/26 04:37:28;;;;;;;8.23;6.63;;;10.80;99.90;;;;;;5091607;28;20606;-83
2021/03/26 04:39:58;;;;;;;14.80;8.90;;;10.80;99.90;;;;;;5084598;28;20226;-82
2021/03/26 04:42:33;;;;;;;11.98;8.32;;;10.80;99.90;;;;;;5087304;28;20226;-84
2021/03/26 04:45:08;;;;;;;8.65;7.82;;;10.80;99.90;;;;;;5078166;28;20236;-83
2021/03/26 04:47:42;;;;;;;11.32;7.85;;;10.70;99.90;;;;;;5073709;28;20218;-84
2021/03/26 04:50:16;;;;;;;11.93;8.52;;;10.70;99.90;;;;;;5089711;28;20198;-84
2021/03/26 04:52:46;;;;;;;7.68;6.85;;;10.70;99.90;;;;;;5081852;28;20210;-83
2021/03/26 04:55:17;;;;;;;10.88;8.65;;;10.70;99.90;;;;;;5081561;28;20973;-83
2021/03/26 04:57:50;;;;;;;12.20;8.68;;;10.70;99.90;;;;;;5081212;28;20235;-83
2021/03/26 05:00:22;;;;;;;9.43;8.50;;;10.70;99.90;;;;;;5081022;28;20186;-83
2021/03/26 05:02:53;;;;;;;11.00;9.52;;;10.70;99.90;;;;;;5071196;28;20539;-83
2021/03/26 05:05:20;;;;;;;11.82;8.85;;;10.70;99.90;;;;;;5083416;28;20724;-82
2021/03/26 05:07:50;;;;;;;9.95;8.65;;;10.70;99.90;;;;;;5068681;28;20208;-83
2021/03/26 05:10:21;;;;;;;9.85;8.82;;;10.60;99.90;;;;;;5079640;28;20225;-83
2021/03/26 05:12:53;;;;;;;11.10;9.10;;;10.60;99.90;;;;;;5070642;28;20553;-82
2021/03/26 05:15:26;;;;;;;10.63;8.18;;;10.60;99.90;;;;;;5086999;28;20273;-81
2021/03/26 05:17:55;;;;;;;10.25;9.15;;;10.60;99.90;;;;;;5089773;28;20767;-81
2021/03/26 05:20:26;;;;;;;8.80;7.50;;;10.60;99.90;;;;;;5070296;28;20214;-81
2021/03/26 05:22:57;;;;;;;9.45;8.45;;;10.60;99.90;;;;;;5071095;28;20233;-81
2021/03/26 05:25:30;;;;;;;13.07;9.70;;;10.60;99.90;;;;;;5076680;28;20233;-82
2021/03/26 05:27:58;;;;;;;13.18;9.20;;;10.60;99.90;;;;;;5075572;28;20276;-82
2021/03/26 05:30:28;;;;;;;9.25;8.15;;;10.60;99.90;;;;;;5080188;28;20189;-83
2021/03/26 05:33:00;;;;;;;9.23;7.40;;;10.50;99.90;;;;;;5090983;28;20539;-81
2021/03/26 05:35:30;;;;;;;10.10;8.20;;;10.50;99.90;;;;;;5079954;28;20748;-82
2021/03/26 05:38:06;;;;;;;11.18;8.55;;;10.50;99.90;;;;;;5092668;28;20213;-82
2021/03/26 05:41:18;;;;;;;11.30;8.82;;;10.50;99.90;;;;;;5078178;28;20213;-83
2021/03/26 05:44:05;;;;;;;13.75;8.90;;;10.50;99.90;;;;;;5045837;28;20194;-81
2021/03/26 05:46:45;;;;;;;10.95;8.35;;;10.50;99.90;;;;;;5086689;28;20217;-81
2021/03/26 05:49:20;;;;;;;9.60;7.45;;;10.50;99.90;;;;;;5077165;28;20661;-82
2021/03/26 05:52:06;;;;;;;9.93;8.93;;;10.50;99.90;;;;;;5086414;28;20711;-81
2021/03/26 05:54:49;;;;;;;13.60;9.18;;;10.50;99.90;;;;;;5074207;28;20218;-83
2021/03/26 05:57:23;;;;;;;10.40;8.57;;;10.50;99.90;;;;;;5084476;28;20674;-83
2021/03/26 06:00:12;;;;;;;8.90;7.90;;;10.50;99.90;;;;;;5076444;28;20214;-83
2021/03/26 06:03:00;;;;;;;10.88;8.30;;;10.50;99.90;;;;;;5074093;28;20198;-82
2021/03/26 06:06:09;;;;;;;12.85;9.20;;;10.50;99.90;;;;;;5078284;28;20581;-82
2021/03/26 06:09:25;;;;;;;11.38;8.25;;;10.50;99.90;;;;;;5084643;28;20296;-83
2021/03/26 06:12:14;;;;;;;13.23;9.18;;;10.50;99.90;;;;;;5024718;28;20733;-83
2021/03/26 06:15:23;;;;;;;9.73;8.20;;;10.60;99.90;;;;;;5083653;28;20561;-83
2021/03/26 06:18:19;;;;;;;12.48;9.73;;;10.70;99.90;;;;;;5094729;28;20687;-82
2021/03/26 06:21:03;;;;;;;12.65;8.20;;;10.70;99.90;;;;;;5080542;28;20189;-82
2021/03/26 06:24:00;;;;;;;10.98;9.82;;;10.80;99.90;;;;;;5072213;28;20222;-82
2021/03/26 06:27:14;;;;;;;13.57;10.18;;;10.90;99.90;;;;;;5082391;28;20194;-82
2021/03/26 06:29:55;;;;;;;9.88;8.82;;;11.00;99.90;;;;;;5014125;28;20211;-82
2021/03/26 06:33:07;;;;;;;10.32;8.48;;;11.10;99.90;;;;;;5072485;28;20278;-82
2021/03/26 06:36:01;;;;;;;11.82;8.48;;;11.30;99.90;;;;;;5039186;28;20600;-82
2021/03/26 06:39:04;;;;;;;11.02;8.77;;;11.40;99.90;;;;;;5073425;28;20222;-81
2021/03/26 06:41:44;;;;;;;9.65;8.23;;;11.60;99.90;;;;;;5082925;28;20205;-85
2021/03/26 06:44:48;;;;;;;9.40;7.85;;;11.60;99.90;;;;;;5091790;28;20579;-85
2021/03/26 06:47:20;;;;;;;10.00;8.10;;;11.70;99.90;;;;;;5093353;28;20213;-84
2021/03/26 06:49:56;;;;;;;8.35;7.55;;;11.80;99.90;;;;;;5084045;28;20301;-82
2021/03/26 06:52:47;;;;;;;8.10;7.30;;;11.90;99.90;;;;;;5073317;28;20607;-82
2021/03/26 06:55:39;;;;;;;8.32;7.53;;;12.00;99.90;;;;;;5082981;28;20876;-82
2021/03/26 06:58:36;;;;;;;11.20;7.70;;;12.10;99.90;;;;;;5088821;28;20304;-85
2021/03/26 07:01:37;;;;;;;10.35;7.82;;;12.20;99.90;;;;;;5085638;28;20193;-86
2021/03/26 07:04:34;;;;;;;8.10;7.30;;;12.30;99.90;;;;;;5076472;28;20693;-86
2021/03/26 07:07:26;;;;;;;8.45;7.60;;;12.40;99.90;;;;;;5076702;28;20218;-86
2021/03/26 07:10:08;;;;;;;11.00;7.00;;;12.50;99.90;;;;;;5080768;28;20185;-85
2021/03/26 07:13:10;;;;;;;12.23;7.97;;;12.60;99.90;;;;;;5076091;28;20201;-85
2021/03/26 07:15:42;;;;;;;9.45;7.00;;;12.70;99.90;;;;;;5077768;28;20724;-74
2021/03/26 07:18:31;;;;;;;9.45;7.68;;;12.80;99.90;;;;;;5075270;28;20260;-76
2021/03/26 07:21:09;;;;;;;9.63;7.55;;;12.90;99.90;;;;;;5073864;28;20198;-76
2021/03/26 07:24:22;;;;;;;10.05;7.10;;;13.00;99.90;;;;;;5078782;28;20248;-77
2021/03/26 07:27:08;;;;;;;11.57;8.30;;;13.10;99.90;;;;;;5084997;28;20701;-78
2021/03/26 07:29:46;;;;;;;8.25;7.45;;;13.10;99.90;;;;;;5072001;28;20202;-77
2021/03/26 07:32:39;;;;;;;11.40;8.65;;;13.20;99.90;;;;;;5086835;28;20217;-77
2021/03/26 07:35:36;;;;;;;8.43;7.63;;;13.30;99.90;;;;;;5077306;28;20546;-76
2021/03/26 07:38:44;;;;;;;7.88;7.07;;;13.40;99.90;;;;;;5062426;28;20601;-78
2021/03/26 07:41:41;;;;;;;8.32;7.45;;;13.50;99.90;;;;;;5076471;28;20273;-78
2021/03/26 07:44:26;;;;;;;11.15;8.85;;;13.60;99.90;;;;;;5063380;28;20221;-80
2021/03/26 07:47:12;;;;;;;7.88;7.07;;;13.70;99.90;;;;;;5087577;28;20197;-81
2021/03/26 07:49:51;;;;;;;8.40;7.25;;;13.70;99.90;;;;;;5082722;28;20220;-79
2021/03/26 07:52:24;;;;;;;9.02;7.75;;;13.80;99.90;;;;;;5076259;28;20555;-80
2021/03/26 07:55:14;;;;;;;8.32;7.53;;;13.90;99.90;;;;;;5090422;28;20631;-80
2021/03/26 07:58:06;;;;;;;9.18;6.85;;;14.00;99.90;;;;;;5071134;28;20218;-79
2021/03/26 08:00:52;;;;;;;7.85;6.65;;;14.10;99.90;;;;;;5079722;28;20214;-79
2021/03/26 08:03:55;;;;;;;10.15;7.25;;;14.10;99.90;;;;;;5076222;28;20221;-79
2021/03/26 08:06:49;;;;;;;10.00;9.00;;;14.20;99.90;;;;;;5049933;28;20766;-79
2021/03/26 08:09:34;;;;;;;9.70;8.15;;;14.20;99.90;;;;;;5086879;28;20186;-79
2021/03/26 08:12:14;;;;;;;11.35;7.25;;;14.30;99.90;;;;;;5072615;28;20236;-78
2021/03/26 08:15:00;;;;;;;8.93;7.72;;;14.30;99.90;;;;;;5087166;28;20209;-78
2021/03/26 08:17:36;;;;;;;9.05;7.05;;;14.40;99.90;;;;;;5091848;28;20190;-79
2021/03/26 08:20:17;;;;;;;10.35;8.00;;;14.40;99.90;;;;;;5086772;28;20192;-78
2021/03/26 08:22:54;;;;;;;7.20;6.50;;;14.50;99.90;;;;;;5082198;28;20233;-78
2021/03/26 08:25:29;;;;;;;7.95;7.15;;;14.50;99.90;;;;;;5074207;28;20240;-78
2021/03/26 08:28:21;;;;;;;9.60;8.60;;;14.60;99.90;;;;;;5073374;28;20185;-79
2021/03/26 08:30:54;;;;;;;7.70;6.30;;;14.60;99.90;;;;;;5048285;28;20266;-79
2021/03/26 08:33:52;;;;;;;12.88;8.52;;;14.70;99.90;;;;;;5076045;28;20677;-77
2021/03/26 08:36:33;;;;;;;9.10;8.20;;;14.70;99.90;;;;;;5072888;28;20225;-78
2021/03/26 08:39:27;;;;;;;9.90;7.95;;;14.70;99.90;;;;;;5086400;28;20217;-78
2021/03/26 08:41:58;;;;;;;8.18;7.38;;;14.80;99.90;;;;;;5081781;28;20213;-79
2021/03/26 08:44:26;;;;;;;12.85;8.13;;;14.80;99.90;;;;;;5091161;28;20224;-79
2021/03/26 08:46:56;;;;;;;9.35;8.00;;;14.80;99.90;;;;;;5084494;28;20214;-78
2021/03/26 08:49:37;;;;;;;7.30;6.53;;;14.90;99.90;;;;;;5070723;28;20676;-78
2021/03/26 08:52:26;;;;;;;7.85;7.05;;;14.90;99.90;;;;;;5086405;28;20245;-79
2021/03/26 08:55:22;;;;;;;7.63;6.30;;;14.90;99.90;;;;;;5068245;28;20665;-78
2021/03/26 08:57:57;;;;;;;8.57;6.32;;;15.00;99.90;;;;;;5044007;28;20190;-78
2021/03/26 09:00:36;;;;;;;7.50;6.72;;;15.00;99.90;;;;;;5077146;28;20747;-78
2021/03/26 09:03:22;;;;;;;8.77;7.90;;;15.00;99.90;;;;;;5086436;28;20267;-78
2021/03/26 09:06:11;;;;;;;8.18;6.93;;;15.00;99.90;;;;;;5073671;28;20229;-78
2021/03/26 09:09:02;;;;;;;8.02;5.57;;;15.00;99.90;;;;;;5077417;28;20193;-78
2021/03/26 09:11:45;;;;;;;8.68;6.63;;;15.00;99.90;;;;;;5050824;28;20669;-79
2021/03/26 09:14:57;;;;;;;7.65;6.50;;;15.00;99.90;;;;;;5087836;28;20680;-79
2021/03/26 09:17:30;;;;;;;7.50;6.25;;;15.00;99.90;;;;;;5044777;28;20198;-78
2021/03/26 09:20:02;;;;;;;6.72;5.90;;;15.00;99.90;;;;;;5080635;28;20194;-78
2021/03/26 09:22:51;;;;;;;8.65;5.40;;;15.00;99.90;;;;;;5069665;28;20232;-78
2021/03/26 09:25:33;;;;;;;7.68;5.43;;;15.00;99.90;;;;;;5072856;28;20230;-77
2021/03/26 09:28:02;;;;;;;6.50;5.63;;;15.00;99.90;;;;;;5078108;28;20262;-77
2021/03/26 09:30:32;;;;;;;6.80;5.35;;;15.10;99.90;;;;;;5083474;28;20213;-80
2021/03/26 09:33:03;;;;;;;5.78;4.75;;;15.00;99.90;;;;;;5086474;28;20221;-79
2021/03/26 09:35:40;;;;;;;6.57;5.03;;;15.10;99.90;;;;;;5078502;28;20210;-79
2021/03/26 09:38:21;;;;;;;9.82;6.05;;;15.00;99.90;;;;;;5070256;28;20229;-80
2021/03/26 09:40:56;;;;;;;6.85;5.13;;;15.00;99.90;;;;;;5070958;28;20206;-79
2021/03/26 09:43:28;;;;;;;7.55;6.25;;;15.10;99.90;;;;;;5080093;28;20220;-79
2021/03/26 09:46:07;;;;;;;8.85;6.55;;;15.00;99.90;;;;;;5090435;28;20592;-80
2021/03/26 09:48:53;;;;;;;10.55;7.13;;;15.00;99.90;;;;;;5085704;28;20815;-78
2021/03/26 09:51:38;;;;;;;8.50;7.20;;;14.90;99.90;;;;;;5074627;28;20213;-78
2021/03/26 09:54:15;;;;;;;7.85;6.20;;;14.80;99.90;;;;;;5090491;28;20192;-79
2021/03/26 09:56:45;;;;;;;8.40;6.38;;;14.70;99.90;;;;;;5076036;28;20695;-78
2021/03/26 09:59:24;;;;;;;11.20;6.63;;;14.60;99.90;;;;;;5070030;28;20214;-78
2021/03/26 10:01:58;;;;;;;9.40;7.75;;;14.60;99.90;;;;;;5070403;28;20214;-78
2021/03/26 10:04:35;;;;;;;11.70;6.78;;;14.60;99.90;;;;;;5070324;28;20643;-81
2021/03/26 10:07:16;;;;;;;8.25;6.47;;;14.50;99.90;;;;;;5089860;28;20182;-78
2021/03/26 10:09:49;;;;;;;12.02;6.90;;;14.50;99.90;;;;;;5083005;28;20206;-79
2021/03/26 10:12:18;;;;;;;7.18;6.47;;;14.50;99.90;;;;;;5070096;28;20666;-79
2021/03/26 10:14:58;;;;;;;10.95;5.93;;;14.50;99.90;;;;;;5069848;28;20230;-81
2021/03/26 10:17:46;;;;;;;7.40;5.70;;;14.60;99.90;;;;;;5081510;28;20194;-81
2021/03/26 10:20:27;;;;;;;7.22;5.85;;;14.60;99.90;;;;;;5079835;28;20228;-81
2021/03/26 10:23:05;;;;;;;6.47;5.53;;;14.70;99.90;;;;;;5073312;28;20268;-82
2021/03/26 10:25:38;;;;;;;8.13;6.47;;;14.70;99.90;;;;;;5073861;28;20221;-83
2021/03/26 10:28:16;;;;;;;8.15;6.30;;;14.60;99.90;;;;;;5074697;28;20210;-82
2021/03/26 10:30:44;;;;;;;6.35;5.03;;;14.60;99.90;;;;;;5073480;28;20225;-82
2021/03/26 10:33:12;;;;;;;8.30;6.25;;;14.50;99.90;;;;;;5078359;28;20219;-82
2021/03/26 10:35:47;;;;;;;9.18;6.07;;;14.40;99.90;;;;;;5075812;28;20218;-77
2021/03/26 10:38:17;;;;;;;7.82;6.50;;;14.40;99.90;;;;;;5074071;28;20221;-77
2021/03/26 10:40:50;;;;;;;8.20;7.28;;;14.30;99.90;;;;;;5073430;28;20271;-77
2021/03/26 10:43:22;;;;;;;7.30;6.32;;;14.30;99.90;;;;;;5072657;28;20190;-78
2021/03/26 10:45:59;;;;;;;10.00;7.32;;;14.40;99.90;;;;;;5073188;28;20222;-80
2021/03/26 10:48:32;;;;;;;7.50;5.88;;;14.40;99.90;;;;;;5078901;28;20213;-79
2021/03/26 10:51:40;;;;;;;8.45;6.55;;;14.50;99.90;;;;;;5084907;28;20595;-79
2021/03/26 10:54:13;;;;;;;6.95;6.20;;;14.40;99.90;;;;;;5072574;28;20213;-80
2021/03/26 10:56:50;;;;;;;10.05;6.15;;;14.40;99.90;;;;;;5078171;28;20275;-79
2021/03/26 10:59:28;;;;;;;11.10;6.20;;;14.40;99.90;;;;;;5078519;28;20209;-79
2021/03/26 11:02:02;;;;;;;9.65;5.88;;;14.50;99.90;;;;;;5086405;28;20217;-79
2021/03/26 11:04:36;;;;;;;8.10;6.68;;;14.50;99.90;;;;;;5079696;28;20221;-79
2021/03/26 11:07:07;;;;;;;7.18;5.80;;;14.50;99.90;;;;;;5080205;28;20197;-79
2021/03/26 11:09:40;;;;;;;6.00;5.30;;;14.50;99.90;;;;;;5091063;28;20802;-80
2021/03/26 11:12:22;;;;;;;7.50;6.00;;;14.50;99.90;;;;;;5074293;28;20367;-79
2021/03/26 11:14:58;;;;;;;9.15;7.78;;;14.50;99.90;;;;;;5076376;28;20227;-79
2021/03/26 11:17:44;;;;;;;7.35;5.93;;;14.60;99.90;;;;;;5080874;28;20230;-81
2021/03/26 11:20:32;;;;;;;8.10;5.65;;;14.50;99.90;;;;;;5088417;28;20198;-80
2021/03/26 11:23:08;;;;;;;7.82;6.00;;;14.60;99.90;;;;;;5083280;28;20218;-81
2021/03/26 11:25:36;;;;;;;6.88;6.00;;;14.60;99.90;;;;;;5071958;28;20232;-80
2021/03/26 11:28:13;;;;;;;11.30;7.47;;;14.60;99.90;;;;;;5083263;28;20217;-81
2021/03/26 11:30:46;;;;;;;6.60;5.32;;;14.60;99.90;;;;;;5091222;28;20220;-81
2021/03/26 11:33:33;;;;;;;6.70;5.18;;;14.60;99.90;;;;;;5082115;28;20481;-82
2021/03/26 11:36:02;;;;;;;7.30;5.40;;;14.60;99.90;;;;;;5072447;28;20580;-80
2021/03/26 11:38:31;;;;;;;8.30;5.53;;;14.60;99.90;;;;;;5081614;28;20222;-82
2021/03/26 11:41:05;;;;;;;7.53;4.45;;;14.60;99.90;;;;;;5080443;28;20200;-82
2021/03/26 11:43:39;;;;;;;6.40;5.30;;;14.70;99.90;;;;;;5092336;28;20220;-82
2021/03/26 11:46:10;;;;;;;6.43;5.25;;;14.60;99.90;;;;;;5075129;28;20226;-82
2021/03/26 11:48:49;;;;;;;6.45;4.88;;;14.70;99.90;;;;;;5073937;28;20214;-81
2021/03/26 11:51:25;;;;;;;8.55;6.78;;;14.70;99.90;;;;;;5071741;28;20189;-80
2021/03/26 11:54:01;;;;;;;8.30;5.78;;;14.70;99.90;;;;;;5078792;28;20246;-80
2021/03/26 11:56:41;;;;;;;8.57;4.90;;;14.70;99.90;;;;;;5073407;28;20865;-79
2021/03/26 11:59:46;;;;;;;7.38;5.30;;;14.70;99.90;;;;;;5087778;28;20228;-81
2021/03/26 12:02:23;;;;;;;6.55;5.25;;;14.70;99.90;;;;;;5074943;28;20218;-82
2021/03/26 12:04:53;;;;;;;7.53;5.63;;;14.80;99.90;;;;;;5071923;28;20217;-80
2021/03/26 12:07:24;;;;;;;7.05;5.55;;;14.80;99.90;;;;;;5071378;28;20178;-82
2021/03/26 12:09:57;;;;;;;6.47;5.75;;;14.80;99.90;;;;;;5073315;28;20216;-83
2021/03/26 12:12:30;;;;;;;6.85;5.57;;;14.80;99.90;;;;;;5080333;28;20328;-80
2021/03/26 12:15:07;;;;;;;8.10;6.07;;;14.80;99.90;;;;;;5075986;28;20192;-81
2021/03/26 12:17:43;;;;;;;6.80;5.72;;;14.80;99.90;;;;;;5083881;28;20232;-82
2021/03/26 12:20:23;;;;;;;7.15;6.07;;;14.80;99.90;;;;;;5087030;28;20584;-80
2021/03/26 12:23:05;;;;;;;9.45;5.75;;;14.80;99.90;;;;;;5081799;28;20221;-82
2021/03/26 12:25:38;;;;;;;9.55;6.45;;;14.80;99.90;;;;;;5088608;28;20221;-82
2021/03/26 12:28:15;;;;;;;11.57;6.00;;;14.80;99.90;;;;;;5073718;28;20343;-81
2021/03/26 12:30:48;;;;;;;6.00;4.95;;;14.80;99.90;;;;;;5081614;28;20210;-79
2021/03/26 12:33:26;;;;;;;7.13;5.85;;;14.90;99.90;;;;;;5091186;28;20214;-79
2021/03/26 12:35:55;;;;;;;8.68;6.40;;;14.90;99.90;;;;;;5073372;28;20243;-81
2021/03/26 12:38:33;;;;;;;9.52;6.22;;;14.90;99.90;;;;;;5071262;28;20236;-82
2021/03/26 12:41:23;;;;;;;9.02;6.90;;;14.90;99.90;;;;;;5086236;28;20208;-80
2021/03/26 12:43:59;;;;;;;7.03;5.70;;;14.90;99.90;;;;;;5088668;28;20228;-79
2021/03/26 12:46:50;;;;;;;9.95;6.90;;;14.90;99.90;;;;;;5078227;28;20221;-80
2021/03/26 12:49:21;;;;;;;11.18;5.90;;;14.90;99.90;;;;;;5070672;28;20190;-82
2021/03/26 12:51:53;;;;;;;7.32;6.50;;;15.00;99.90;;;;;;5070830;28;20222;-79
2021/03/26 12:54:25;;;;;;;7.78;6.20;;;15.00;99.90;;;;;;5070692;28;20218;-82
2021/03/26 12:56:57;;;;;;;7.18;4.90;;;15.00;99.90;;;;;;5071143;28;20230;-82
2021/03/26 12:59:26;;;;;;;5.82;5.32;;;15.00;99.90;;;;;;5070770;28;20218;-83
2021/03/26 13:01:55;;;;;;;6.22;5.30;;;15.00;99.90;;;;;;5071132;28;20209;-82
2021/03/26 13:04:44;;;;;;;6.57;5.88;;;15.00;99.90;;;;;;5071504;28;20599;-83
2021/03/26 13:07:24;;;;;;;6.22;5.20;;;15.00;99.90;;;;;;5076571;28;20210;-82
2021/03/26 13:09:56;;;;;;;7.68;6.30;;;15.00;99.90;;;;;;5090688;28;20209;-83
2021/03/26 13:12:29;;;;;;;5.95;5.35;;;15.10;99.90;;;;;;5091484;28;20327;-83
2021/03/26 13:15:01;;;;;;;12.23;5.43;;;15.00;99.90;;;;;;5089034;28;20571;-83
2021/03/26 13:17:30;;;;;;;7.22;6.25;;;15.10;99.90;;;;;;5090542;28;20761;-81
2021/03/26 13:20:04;;;;;;;10.30;5.82;;;15.00;99.90;;;;;;5083340;28;20217;-82
2021/03/26 13:22:39;;;;;;;8.25;5.05;;;15.10;99.90;;;;;;5090025;28;20829;-81
2021/03/26 13:25:22;;;;;;;7.68;6.03;;;15.10;99.90;;;;;;5070407;28;20220;-83
2021/03/26 13:28:20;;;;;;;7.85;5.90;;;15.10;99.90;;;;;;5070879;28;20220;-83
2021/03/26 13:30:59;;;;;;;5.55;4.97;;;15.10;99.90;;;;;;5042069;28;20214;-83